sensor_id;sensor_type;location;lat;lon;timestamp;pressure;altitude;pressure_sealevel;temperature;humidity
74613;BME280;63119;51.788;8.824;2023-03-01T00:01:47;101477.88;;;-1.66;74.97
74613;BME280;63119;51.788;8.824;2023-03-01T00:04:12;101473.56;;;-1.61;75.27
74613;BME280;63119;51.788;8.824;2023-03-01T00:06:38;101478.75;;;-1.64;74.68
74613;BME280;63119;51.788;8.824;2023-03-01T00:09:03;101477.75;;;-1.87;75.76
74613;BME280;63119;51.788;8.824;2023-03-01T00:11:30;101475.22;;;-1.80;75.45
74613;BME280;63119;51.788;8.824;2023-03-01T00:13:57;101472.63;;;-1.78;75.55
74613;BME280;63119;51.788;8.824;2023-03-01T00:16:29;101472.59;;;-1.84;75.12
74613;BME280;63119;51.788;8.824;2023-03-01T00:18:55;101478.69;;;-1.76;74.61
74613;BME280;63119;51.788;8.824;2023-03-01T00:21:21;101471.88;;;-1.59;74.22
74613;BME280;63119;51.788;8.824;2023-03-01T00:23:50;101476.25;;;-1.50;73.58
74613;BME280;63119;51.788;8.824;2023-03-01T00:26:17;101478.84;;;-1.46;73.71
74613;BME280;63119;51.788;8.824;2023-03-01T00:28:43;101471.06;;;-1.43;73.09
74613;BME280;63119;51.788;8.824;2023-03-01T00:31:14;101464.97;;;-1.51;73.86
74613;BME280;63119;51.788;8.824;2023-03-01T00:33:40;101472.69;;;-1.66;74.25
74613;BME280;63119;51.788;8.824;2023-03-01T00:36:06;101471.03;;;-1.53;73.65
74613;BME280;63119;51.788;8.824;2023-03-01T00:38:36;101474.44;;;-1.65;74.35
74613;BME280;63119;51.788;8.824;2023-03-01T00:41:06;101469.22;;;-1.71;74.42
74613;BME280;63119;51.788;8.824;2023-03-01T00:43:32;101471.66;;;-1.95;75.95
74613;BME280;63119;51.788;8.824;2023-03-01T00:46:11;101473.38;;;-1.94;75.33
74613;BME280;63119;51.788;8.824;2023-03-01T00:48:37;101472.69;;;-1.71;74.79
74613;BME280;63119;51.788;8.824;2023-03-01T00:51:07;101473.50;;;-1.76;74.69
74613;BME280;63119;51.788;8.824;2023-03-01T00:53:33;101469.97;;;-1.89;75.21
74613;BME280;63119;51.788;8.824;2023-03-01T00:55:59;101474.22;;;-2.01;76.19
74613;BME280;63119;51.788;8.824;2023-03-01T00:58:25;101476.88;;;-1.92;75.27
74613;BME280;63119;51.788;8.824;2023-03-01T01:00:50;101476.00;;;-1.91;74.73
74613;BME280;63119;51.788;8.824;2023-03-01T01:03:17;101476.66;;;-2.21;76.12
74613;BME280;63119;51.788;8.824;2023-03-01T01:05:42;101472.25;;;-2.33;77.14
74613;BME280;63119;51.788;8.824;2023-03-01T01:08:07;101470.50;;;-2.34;77.29
74613;BME280;63119;51.788;8.824;2023-03-01T01:10:34;101464.47;;;-2.34;77.38
74613;BME280;63119;51.788;8.824;2023-03-01T01:12:59;101474.09;;;-2.18;77.38
74613;BME280;63119;51.788;8.824;2023-03-01T01:15:24;101466.31;;;-2.15;75.89
74613;BME280;63119;51.788;8.824;2023-03-01T01:17:50;101469.00;;;-2.04;75.86
74613;BME280;63119;51.788;8.824;2023-03-01T01:20:15;101467.31;;;-1.99;74.99
74613;BME280;63119;51.788;8.824;2023-03-01T01:22:40;101456.06;;;-1.97;74.56
74613;BME280;63119;51.788;8.824;2023-03-01T01:25:06;101459.53;;;-2.01;74.51
74613;BME280;63119;51.788;8.824;2023-03-01T01:27:31;101451.81;;;-1.92;73.87
74613;BME280;63119;51.788;8.824;2023-03-01T01:29:56;101451.84;;;-1.86;73.55
74613;BME280;63119;51.788;8.824;2023-03-01T01:32:22;101440.53;;;-1.95;74.62
74613;BME280;63119;51.788;8.824;2023-03-01T01:34:47;101434.44;;;-1.97;74.58
74613;BME280;63119;51.788;8.824;2023-03-01T01:37:12;101432.66;;;-2.10;74.94
74613;BME280;63119;51.788;8.824;2023-03-01T01:39:38;101432.75;;;-1.98;74.29
74613;BME280;63119;51.788;8.824;2023-03-01T01:42:03;101425.78;;;-2.05;74.53
74613;BME280;63119;51.788;8.824;2023-03-01T01:44:29;101423.25;;;-1.98;74.13
74613;BME280;63119;51.788;8.824;2023-03-01T01:47:18;101432.75;;;-1.94;74.05
74613;BME280;63119;51.788;8.824;2023-03-01T01:49:54;101430.16;;;-1.95;74.24
74613;BME280;63119;51.788;8.824;2023-03-01T01:52:25;101424.03;;;-2.08;74.01
74613;BME280;63119;51.788;8.824;2023-03-01T01:55:03;101417.09;;;-2.10;74.62
74613;BME280;63119;51.788;8.824;2023-03-01T01:57:55;101419.69;;;-2.12;74.92
74613;BME280;63119;51.788;8.824;2023-03-01T02:00:25;101415.34;;;-2.14;74.56
74613;BME280;63119;51.788;8.824;2023-03-01T02:02:56;101418.78;;;-2.15;74.07
74613;BME280;63119;51.788;8.824;2023-03-01T02:05:36;101414.47;;;-2.19;74.65
74613;BME280;63119;51.788;8.824;2023-03-01T02:08:03;101416.19;;;-2.20;74.35
74613;BME280;63119;51.788;8.824;2023-03-01T02:10:29;101417.81;;;-2.33;74.83
74613;BME280;63119;51.788;8.824;2023-03-01T02:12:58;101413.31;;;-2.55;76.08
74613;BME280;63119;51.788;8.824;2023-03-01T02:15:23;101412.56;;;-2.43;76.22
74613;BME280;63119;51.788;8.824;2023-03-01T02:17:49;101414.25;;;-2.45;75.54
74613;BME280;63119;51.788;8.824;2023-03-01T02:23:02;101410.94;;;-2.25;74.89
74613;BME280;63119;51.788;8.824;2023-03-01T02:30:45;101413.63;;;-2.12;74.45
74613;BME280;63119;51.788;8.824;2023-03-01T02:33:30;101410.13;;;-2.17;74.76
74613;BME280;63119;51.788;8.824;2023-03-01T02:36:02;101411.91;;;-2.10;74.44
74613;BME280;63119;51.788;8.824;2023-03-01T02:38:29;101408.34;;;-2.26;75.39
74613;BME280;63119;51.788;8.824;2023-03-01T02:40:56;101408.31;;;-2.32;75.76
74613;BME280;63119;51.788;8.824;2023-03-01T02:43:25;101413.34;;;-2.52;76.74
74613;BME280;63119;51.788;8.824;2023-03-01T02:45:52;101406.44;;;-2.53;76.37
74613;BME280;63119;51.788;8.824;2023-03-01T02:48:18;101405.59;;;-2.49;76.38
74613;BME280;63119;51.788;8.824;2023-03-01T02:51:07;101409.09;;;-2.42;76.16
74613;BME280;63119;51.788;8.824;2023-03-01T02:53:41;101395.97;;;-2.65;77.87
74613;BME280;63119;51.788;8.824;2023-03-01T02:56:11;101396.75;;;-2.73;78.26
74613;BME280;63119;51.788;8.824;2023-03-01T02:58:41;101384.66;;;-2.78;78.46
74613;BME280;63119;51.788;8.824;2023-03-01T03:01:11;101382.91;;;-2.79;78.02
74613;BME280;63119;51.788;8.824;2023-03-01T03:03:38;101383.75;;;-2.80;78.77
74613;BME280;63119;51.788;8.824;2023-03-01T03:06:03;101372.56;;;-2.76;78.80
74613;BME280;63119;51.788;8.824;2023-03-01T03:08:29;101373.47;;;-2.72;78.01
74613;BME280;63119;51.788;8.824;2023-03-01T03:10:54;101362.97;;;-2.87;78.62
74613;BME280;63119;51.788;8.824;2023-03-01T03:13:19;101361.31;;;-2.79;77.66
74613;BME280;63119;51.788;8.824;2023-03-01T03:15:47;101356.09;;;-2.84;78.10
74613;BME280;63119;51.788;8.824;2023-03-01T03:18:14;101357.94;;;-2.72;77.48
74613;BME280;63119;51.788;8.824;2023-03-01T03:20:41;101351.91;;;-2.68;77.19
74613;BME280;63119;51.788;8.824;2023-03-01T03:23:07;101358.00;;;-2.60;76.77
74613;BME280;63119;51.788;8.824;2023-03-01T03:25:33;101357.13;;;-2.60;76.83
74613;BME280;63119;51.788;8.824;2023-03-01T03:28:03;101349.34;;;-2.63;76.61
74613;BME280;63119;51.788;8.824;2023-03-01T03:30:36;101349.38;;;-2.60;76.70
74613;BME280;63119;51.788;8.824;2023-03-01T03:33:03;101353.56;;;-2.78;77.71
74613;BME280;63119;51.788;8.824;2023-03-01T03:35:31;101339.53;;;-3.01;78.52
74613;BME280;63119;51.788;8.824;2023-03-01T03:38:00;101350.75;;;-3.03;78.54
74613;BME280;63119;51.788;8.824;2023-03-01T03:40:34;101346.53;;;-2.95;78.35
74613;BME280;63119;51.788;8.824;2023-03-01T03:43:01;101343.91;;;-2.98;78.24
74613;BME280;63119;51.788;8.824;2023-03-01T03:45:27;101354.16;;;-3.10;78.89
74613;BME280;63119;51.788;8.824;2023-03-01T03:47:52;101363.59;;;-3.12;78.53
74613;BME280;63119;51.788;8.824;2023-03-01T03:50:18;101361.88;;;-3.12;78.76
74613;BME280;63119;51.788;8.824;2023-03-01T03:52:44;101356.78;;;-3.06;78.67
74613;BME280;63119;51.788;8.824;2023-03-01T03:55:11;101360.28;;;-2.99;78.56
74613;BME280;63119;51.788;8.824;2023-03-01T03:57:38;101354.31;;;-2.92;77.72
74613;BME280;63119;51.788;8.824;2023-03-01T04:00:05;101345.66;;;-2.91;77.77
74613;BME280;63119;51.788;8.824;2023-03-01T04:02:41;101354.25;;;-2.97;78.28
74613;BME280;63119;51.788;8.824;2023-03-01T04:05:08;101355.06;;;-3.05;78.71
74613;BME280;63119;51.788;8.824;2023-03-01T04:07:34;101348.88;;;-3.18;79.07
74613;BME280;63119;51.788;8.824;2023-03-01T04:10:00;101353.19;;;-3.20;78.84
74613;BME280;63119;51.788;8.824;2023-03-01T04:12:26;101360.25;;;-3.02;78.31
74613;BME280;63119;51.788;8.824;2023-03-01T04:14:51;101353.41;;;-2.99;77.33
74613;BME280;63119;51.788;8.824;2023-03-01T04:17:16;101355.09;;;-3.02;78.14
74613;BME280;63119;51.788;8.824;2023-03-01T04:19:41;101358.47;;;-3.06;78.14
74613;BME280;63119;51.788;8.824;2023-03-01T04:22:09;101353.38;;;-2.97;78.45
74613;BME280;63119;51.788;8.824;2023-03-01T04:24:36;101360.31;;;-2.95;77.90
74613;BME280;63119;51.788;8.824;2023-03-01T04:27:02;101356.03;;;-2.91;77.98
74613;BME280;63119;51.788;8.824;2023-03-01T04:29:27;101354.28;;;-2.95;77.55
74613;BME280;63119;51.788;8.824;2023-03-01T04:31:53;101355.13;;;-2.95;77.91
74613;BME280;63119;51.788;8.824;2023-03-01T04:34:18;101353.31;;;-3.06;78.64
74613;BME280;63119;51.788;8.824;2023-03-01T04:36:44;101353.31;;;-3.06;78.91
74613;BME280;63119;51.788;8.824;2023-03-01T04:39:09;101348.97;;;-3.10;78.73
74613;BME280;63119;51.788;8.824;2023-03-01T04:41:38;101345.53;;;-3.06;78.92
74613;BME280;63119;51.788;8.824;2023-03-01T04:44:04;101350.72;;;-3.06;78.75
74613;BME280;63119;51.788;8.824;2023-03-01T04:46:29;101347.13;;;-3.23;79.15
74613;BME280;63119;51.788;8.824;2023-03-01T04:48:55;101352.25;;;-3.26;79.07
74613;BME280;63119;51.788;8.824;2023-03-01T04:51:20;101348.78;;;-3.32;79.51
74613;BME280;63119;51.788;8.824;2023-03-01T04:53:46;101353.22;;;-3.15;79.68
74613;BME280;63119;51.788;8.824;2023-03-01T04:56:12;101355.94;;;-3.02;78.36
74613;BME280;63119;51.788;8.824;2023-03-01T04:58:39;101353.41;;;-2.96;77.66
74613;BME280;63119;51.788;8.824;2023-03-01T05:01:12;101355.16;;;-2.92;77.46
74613;BME280;63119;51.788;8.824;2023-03-01T05:03:45;101341.31;;;-2.98;77.90
74613;BME280;63119;51.788;8.824;2023-03-01T05:06:11;101349.09;;;-2.98;77.81
74613;BME280;63119;51.788;8.824;2023-03-01T05:08:38;101349.00;;;-3.06;78.55
74613;BME280;63119;51.788;8.824;2023-03-01T05:11:04;101356.84;;;-2.97;77.80
74613;BME280;63119;51.788;8.824;2023-03-01T05:13:30;101352.38;;;-3.14;78.60
74613;BME280;63119;51.788;8.824;2023-03-01T05:15:57;101353.25;;;-3.14;78.76
74613;BME280;63119;51.788;8.824;2023-03-01T05:18:23;101349.81;;;-3.11;78.44
74613;BME280;63119;51.788;8.824;2023-03-01T05:20:54;101355.91;;;-3.06;78.50
74613;BME280;63119;51.788;8.824;2023-03-01T05:23:22;101344.72;;;-3.02;77.47
74613;BME280;63119;51.788;8.824;2023-03-01T05:25:47;101347.44;;;-2.87;77.48
74613;BME280;63119;51.788;8.824;2023-03-01T05:28:13;101343.19;;;-2.76;76.77
74613;BME280;63119;51.788;8.824;2023-03-01T05:30:39;101330.28;;;-2.73;76.71
74613;BME280;63119;51.788;8.824;2023-03-01T05:33:05;101336.28;;;-2.79;76.81
74613;BME280;63119;51.788;8.824;2023-03-01T05:35:32;101329.41;;;-2.75;77.01
74613;BME280;63119;51.788;8.824;2023-03-01T05:37:58;101328.50;;;-2.79;76.83
74613;BME280;63119;51.788;8.824;2023-03-01T05:40:24;101330.13;;;-2.91;77.19
74613;BME280;63119;51.788;8.824;2023-03-01T05:42:53;101326.66;;;-2.95;77.56
74613;BME280;63119;51.788;8.824;2023-03-01T05:45:19;101329.16;;;-3.05;78.00
74613;BME280;63119;51.788;8.824;2023-03-01T05:47:47;101328.25;;;-3.13;78.59
74613;BME280;63119;51.788;8.824;2023-03-01T05:50:25;101331.56;;;-3.26;78.38
74613;BME280;63119;51.788;8.824;2023-03-01T05:52:55;101339.22;;;-3.34;78.95
74613;BME280;63119;51.788;8.824;2023-03-01T05:55:21;101333.22;;;-3.35;78.91
74613;BME280;63119;51.788;8.824;2023-03-01T05:57:47;101335.06;;;-3.20;77.91
74613;BME280;63119;51.788;8.824;2023-03-01T06:00:14;101339.34;;;-3.23;78.72
74613;BME280;63119;51.788;8.824;2023-03-01T06:02:41;101337.72;;;-3.12;77.77
74613;BME280;63119;51.788;8.824;2023-03-01T06:05:08;101349.78;;;-3.14;77.59
74613;BME280;63119;51.788;8.824;2023-03-01T06:07:34;101347.84;;;-3.38;77.98
74613;BME280;63119;51.788;8.824;2023-03-01T06:10:00;101345.25;;;-3.37;78.48
74613;BME280;63119;51.788;8.824;2023-03-01T06:12:25;101349.34;;;-3.55;79.48
74613;BME280;63119;51.788;8.824;2023-03-01T06:14:50;101351.09;;;-3.56;79.15
74613;BME280;63119;51.788;8.824;2023-03-01T06:17:15;101344.25;;;-3.51;79.68
74613;BME280;63119;51.788;8.824;2023-03-01T06:19:41;101345.03;;;-3.58;79.28
74613;BME280;63119;51.788;8.824;2023-03-01T06:22:06;101341.69;;;-3.48;79.31
74613;BME280;63119;51.788;8.824;2023-03-01T06:24:32;101338.44;;;-3.28;78.87
74613;BME280;63119;51.788;8.824;2023-03-01T06:26:58;101337.59;;;-3.26;78.10
74613;BME280;63119;51.788;8.824;2023-03-01T06:29:23;101340.78;;;-3.53;79.68
74613;BME280;63119;51.788;8.824;2023-03-01T06:31:48;101339.00;;;-3.55;79.79
74613;BME280;63119;51.788;8.824;2023-03-01T06:34:14;101346.78;;;-3.57;80.21
74613;BME280;63119;51.788;8.824;2023-03-01T06:36:40;101339.88;;;-3.55;80.33
74613;BME280;63119;51.788;8.824;2023-03-01T06:39:05;101335.78;;;-3.36;79.80
74613;BME280;63119;51.788;8.824;2023-03-01T06:41:31;101336.75;;;-3.26;79.45
74613;BME280;63119;51.788;8.824;2023-03-01T06:43:57;101338.94;;;-2.71;77.68
74613;BME280;63119;51.788;8.824;2023-03-01T06:46:23;101336.84;;;-1.76;74.28
74613;BME280;63119;51.788;8.824;2023-03-01T06:48:49;101331.78;;;-0.41;69.48
74613;BME280;63119;51.788;8.824;2023-03-01T06:51:14;101327.97;;;0.51;66.25
74613;BME280;63119;51.788;8.824;2023-03-01T06:53:39;101328.31;;;1.23;64.52
74613;BME280;63119;51.788;8.824;2023-03-01T06:56:04;101331.69;;;2.80;58.35
74613;BME280;63119;51.788;8.824;2023-03-01T06:58:30;101327.75;;;3.60;55.54
74613;BME280;63119;51.788;8.824;2023-03-01T07:00:55;101320.94;;;4.40;52.85
74613;BME280;63119;51.788;8.824;2023-03-01T07:03:20;101325.72;;;4.60;51.58
74613;BME280;63119;51.788;8.824;2023-03-01T07:05:48;101329.75;;;5.47;48.91
74613;BME280;63119;51.788;8.824;2023-03-01T07:08:14;101319.66;;;5.98;48.15
74613;BME280;63119;51.788;8.824;2023-03-01T07:10:39;101320.81;;;6.19;47.52
74613;BME280;63119;51.788;8.824;2023-03-01T07:13:04;101317.16;;;6.53;46.92
74613;BME280;63119;51.788;8.824;2023-03-01T07:15:31;101318.28;;;7.02;45.13
74613;BME280;63119;51.788;8.824;2023-03-01T07:17:57;101305.03;;;7.30;43.69
74613;BME280;63119;51.788;8.824;2023-03-01T07:20:23;101302.63;;;7.50;43.42
74613;BME280;63119;51.788;8.824;2023-03-01T07:22:51;101299.69;;;7.57;43.22
74613;BME280;63119;51.788;8.824;2023-03-01T07:25:16;101299.00;;;8.02;42.77
74613;BME280;63119;51.788;8.824;2023-03-01T07:27:42;101290.88;;;8.31;41.88
74613;BME280;63119;51.788;8.824;2023-03-01T07:30:07;101288.00;;;8.82;41.91
74613;BME280;63119;51.788;8.824;2023-03-01T07:32:33;101289.53;;;8.88;41.04
74613;BME280;63119;51.788;8.824;2023-03-01T07:34:58;101285.84;;;9.33;40.24
74613;BME280;63119;51.788;8.824;2023-03-01T07:37:24;101287.34;;;9.41;40.84
74613;BME280;63119;51.788;8.824;2023-03-01T07:39:49;101285.44;;;9.44;40.28
74613;BME280;63119;51.788;8.824;2023-03-01T07:42:14;101287.59;;;9.75;40.03
74613;BME280;63119;51.788;8.824;2023-03-01T07:44:39;101286.03;;;9.51;39.17
74613;BME280;63119;51.788;8.824;2023-03-01T07:47:05;101287.78;;;9.91;39.20
74613;BME280;63119;51.788;8.824;2023-03-01T07:49:30;101289.44;;;10.88;42.16
74613;BME280;63119;51.788;8.824;2023-03-01T07:51:55;101284.63;;;10.21;38.39
74613;BME280;63119;51.788;8.824;2023-03-01T07:54:21;101289.75;;;10.63;38.49
74613;BME280;63119;51.788;8.824;2023-03-01T07:56:47;101285.06;;;10.31;38.80
74613;BME280;63119;51.788;8.824;2023-03-01T07:59:12;101282.16;;;10.37;38.34
74613;BME280;63119;51.788;8.824;2023-03-01T08:01:37;101281.22;;;10.38;37.74
74613;BME280;63119;51.788;8.824;2023-03-01T08:04:02;101276.84;;;10.37;39.10
74613;BME280;63119;51.788;8.824;2023-03-01T08:06:29;101272.00;;;10.28;38.91
74613;BME280;63119;51.788;8.824;2023-03-01T08:08:55;101271.72;;;10.34;38.70
74613;BME280;63119;51.788;8.824;2023-03-01T08:11:23;101275.75;;;10.43;38.88
74613;BME280;63119;51.788;8.824;2023-03-01T08:13:48;101277.38;;;10.26;37.31
74613;BME280;63119;51.788;8.824;2023-03-01T08:16:15;101271.38;;;10.03;36.87
74613;BME280;63119;51.788;8.824;2023-03-01T08:18:41;101267.13;;;9.60;37.63
74613;BME280;63119;51.788;8.824;2023-03-01T08:21:12;101266.94;;;9.44;37.94
74613;BME280;63119;51.788;8.824;2023-03-01T08:23:39;101270.06;;;7.51;40.95
74613;BME280;63119;51.788;8.824;2023-03-01T08:26:16;101268.56;;;7.19;42.19
74613;BME280;63119;51.788;8.824;2023-03-01T08:28:42;101271.44;;;7.62;42.09
74613;BME280;63119;51.788;8.824;2023-03-01T08:31:23;101271.00;;;6.99;43.60
74613;BME280;63119;51.788;8.824;2023-03-01T08:33:51;101283.06;;;6.78;43.47
74613;BME280;63119;51.788;8.824;2023-03-01T08:36:20;101271.47;;;8.09;42.71
74613;BME280;63119;51.788;8.824;2023-03-01T08:38:46;101277.25;;;6.95;44.11
74613;BME280;63119;51.788;8.824;2023-03-01T08:41:11;101277.97;;;7.26;41.61
74613;BME280;63119;51.788;8.824;2023-03-01T08:43:36;101280.72;;;6.12;43.63
74613;BME280;63119;51.788;8.824;2023-03-01T08:46:02;101281.34;;;6.77;43.79
74613;BME280;63119;51.788;8.824;2023-03-01T08:48:28;101277.88;;;6.20;44.19
74613;BME280;63119;51.788;8.824;2023-03-01T08:50:54;101276.63;;;6.02;44.17
74613;BME280;63119;51.788;8.824;2023-03-01T08:53:19;101282.41;;;6.72;44.15
74613;BME280;63119;51.788;8.824;2023-03-01T08:55:44;101277.63;;;6.56;44.10
74613;BME280;63119;51.788;8.824;2023-03-01T08:58:09;101272.38;;;5.98;45.38
74613;BME280;63119;51.788;8.824;2023-03-01T09:00:35;101274.03;;;6.87;44.73
74613;BME280;63119;51.788;8.824;2023-03-01T09:03:01;101266.34;;;7.07;42.26
74613;BME280;63119;51.788;8.824;2023-03-01T09:05:26;101275.91;;;6.83;44.15
74613;BME280;63119;51.788;8.824;2023-03-01T09:07:51;101273.06;;;6.34;43.20
74613;BME280;63119;51.788;8.824;2023-03-01T09:10:17;101262.31;;;6.69;43.37
74613;BME280;63119;51.788;8.824;2023-03-01T09:12:42;101266.22;;;6.28;43.88
74613;BME280;63119;51.788;8.824;2023-03-01T09:15:08;101268.63;;;6.64;42.86
74613;BME280;63119;51.788;8.824;2023-03-01T09:17:33;101252.03;;;7.40;43.71
74613;BME280;63119;51.788;8.824;2023-03-01T09:19:58;101259.19;;;7.10;42.44
74613;BME280;63119;51.788;8.824;2023-03-01T09:22:24;101249.88;;;6.74;41.71
74613;BME280;63119;51.788;8.824;2023-03-01T09:24:50;101244.25;;;6.29;42.85
74613;BME280;63119;51.788;8.824;2023-03-01T09:27:15;101251.03;;;5.45;46.04
74613;BME280;63119;51.788;8.824;2023-03-01T09:29:43;101254.59;;;6.06;44.95
74613;BME280;63119;51.788;8.824;2023-03-01T09:32:08;101258.00;;;6.67;43.52
74613;BME280;63119;51.788;8.824;2023-03-01T09:34:34;101247.03;;;6.25;43.67
74613;BME280;63119;51.788;8.824;2023-03-01T09:37:19;101240.56;;;6.36;43.92
74613;BME280;63119;51.788;8.824;2023-03-01T09:39:44;101247.09;;;6.79;44.08
74613;BME280;63119;51.788;8.824;2023-03-01T09:42:11;101242.91;;;6.45;43.50
74613;BME280;63119;51.788;8.824;2023-03-01T09:44:42;101248.53;;;6.61;42.92
74613;BME280;63119;51.788;8.824;2023-03-01T09:47:17;101248.72;;;6.27;44.80
74613;BME280;63119;51.788;8.824;2023-03-01T09:49:43;101248.72;;;6.27;43.58
74613;BME280;63119;51.788;8.824;2023-03-01T09:52:30;101248.66;;;5.99;44.20
74613;BME280;63119;51.788;8.824;2023-03-01T09:54:58;101256.41;;;6.33;44.09
74613;BME280;63119;51.788;8.824;2023-03-01T09:57:33;101238.19;;;6.83;43.59
74613;BME280;63119;51.788;8.824;2023-03-01T10:02:39;101239.19;;;7.31;44.15
74613;BME280;63119;51.788;8.824;2023-03-01T10:05:17;101241.19;;;6.98;41.80
74613;BME280;63119;51.788;8.824;2023-03-01T10:07:52;101249.00;;;5.89;43.15
74613;BME280;63119;51.788;8.824;2023-03-01T10:10:28;101240.22;;;6.19;44.56
74613;BME280;63119;51.788;8.824;2023-03-01T10:12:56;101232.19;;;6.51;43.54
74613;BME280;63119;51.788;8.824;2023-03-01T10:15:41;101230.16;;;7.38;43.07
74613;BME280;63119;51.788;8.824;2023-03-01T10:18:16;101225.41;;;8.19;42.33
74613;BME280;63119;51.788;8.824;2023-03-01T10:20:51;101213.38;;;7.89;41.05
74613;BME280;63119;51.788;8.824;2023-03-01T10:23:17;101218.22;;;7.28;42.40
74613;BME280;63119;51.788;8.824;2023-03-01T10:28:39;101223.84;;;7.42;41.86
74613;BME280;63119;51.788;8.824;2023-03-01T10:31:13;101218.16;;;7.05;42.18
74613;BME280;63119;51.788;8.824;2023-03-01T10:33:40;101209.00;;;7.41;41.66
74613;BME280;63119;51.788;8.824;2023-03-01T10:36:06;101209.41;;;8.23;40.62
74613;BME280;63119;51.788;8.824;2023-03-01T10:38:48;101218.72;;;7.87;40.80
74613;BME280;63119;51.788;8.824;2023-03-01T10:41:13;101212.41;;;7.91;42.48
74613;BME280;63119;51.788;8.824;2023-03-01T10:43:58;101203.25;;;7.78;42.30
74613;BME280;63119;51.788;8.824;2023-03-01T10:46:36;101217.47;;;7.25;42.96
74613;BME280;63119;51.788;8.824;2023-03-01T10:49:19;101204.19;;;7.52;42.33
74613;BME280;63119;51.788;8.824;2023-03-01T10:51:47;101203.00;;;8.07;42.43
74613;BME280;63119;51.788;8.824;2023-03-01T10:54:29;101210.44;;;7.25;42.71
74613;BME280;63119;51.788;8.824;2023-03-01T10:56:57;101191.25;;;7.69;41.95
74613;BME280;63119;51.788;8.824;2023-03-01T10:59:35;101197.91;;;8.26;40.18
74613;BME280;63119;51.788;8.824;2023-03-01T11:02:15;101198.22;;;8.84;39.63
74613;BME280;63119;51.788;8.824;2023-03-01T11:04:57;101192.22;;;9.00;40.87
74613;BME280;63119;51.788;8.824;2023-03-01T11:07:22;101192.94;;;9.04;39.48
74613;BME280;63119;51.788;8.824;2023-03-01T11:09:48;101193.28;;;8.33;39.79
74613;BME280;63119;51.788;8.824;2023-03-01T11:12:14;101194.75;;;8.16;41.95
74613;BME280;63119;51.788;8.824;2023-03-01T11:14:50;101194.41;;;7.79;40.74
74613;BME280;63119;51.788;8.824;2023-03-01T11:17:35;101186.06;;;7.91;41.90
74613;BME280;63119;51.788;8.824;2023-03-01T11:22:44;101178.97;;;8.15;42.00
74613;BME280;63119;51.788;8.824;2023-03-01T11:25:13;101181.66;;;8.58;39.69
74613;BME280;63119;51.788;8.824;2023-03-01T11:27:43;101175.41;;;8.39;40.05
74613;BME280;63119;51.788;8.824;2023-03-01T11:30:22;101174.03;;;8.72;41.65
74613;BME280;63119;51.788;8.824;2023-03-01T11:35:46;101183.19;;;8.20;40.53
74613;BME280;63119;51.788;8.824;2023-03-01T11:38:20;101182.25;;;7.29;40.26
74613;BME280;63119;51.788;8.824;2023-03-01T11:40:52;101179.47;;;7.56;41.00
74613;BME280;63119;51.788;8.824;2023-03-01T11:49:30;101168.88;;;8.26;40.08
74613;BME280;63119;51.788;8.824;2023-03-01T11:52:17;101172.59;;;7.99;39.27
74613;BME280;63119;51.788;8.824;2023-03-01T11:55:11;101166.75;;;7.67;40.30
74613;BME280;63119;51.788;8.824;2023-03-01T12:00:47;101166.78;;;8.12;37.24
74613;BME280;63119;51.788;8.824;2023-03-01T12:03:28;101158.75;;;7.70;37.14
74613;BME280;63119;51.788;8.824;2023-03-01T12:06:18;101155.50;;;7.39;38.77
74613;BME280;63119;51.788;8.824;2023-03-01T12:17:21;101138.50;;;7.48;38.69
74613;BME280;63119;51.788;8.824;2023-03-01T12:25:33;101131.84;;;8.93;38.38
74613;BME280;63119;51.788;8.824;2023-03-01T12:31:06;101123.03;;;8.30;39.96
74613;BME280;63119;51.788;8.824;2023-03-01T12:33:52;101116.94;;;8.06;39.35
74613;BME280;63119;51.788;8.824;2023-03-01T12:36:47;101115.28;;;8.25;39.41
74613;BME280;63119;51.788;8.824;2023-03-01T12:42:23;101119.66;;;8.27;38.83
74613;BME280;63119;51.788;8.824;2023-03-01T12:45:26;101100.34;;;8.48;38.89
74613;BME280;63119;51.788;8.824;2023-03-01T12:50:51;101096.28;;;8.17;40.83
74613;BME280;63119;51.788;8.824;2023-03-01T12:53:32;101083.25;;;8.14;41.79
74613;BME280;63119;51.788;8.824;2023-03-01T12:56:02;101096.13;;;7.54;40.52
74613;BME280;63119;51.788;8.824;2023-03-01T12:58:34;101094.13;;;8.27;40.19
74613;BME280;63119;51.788;8.824;2023-03-01T13:01:08;101086.13;;;8.30;38.47
74613;BME280;63119;51.788;8.824;2023-03-01T13:06:55;101077.09;;;7.47;41.41
74613;BME280;63119;51.788;8.824;2023-03-01T13:09:35;101075.63;;;7.17;40.94
74613;BME280;63119;51.788;8.824;2023-03-01T13:15:24;101069.25;;;8.34;38.61
74613;BME280;63119;51.788;8.824;2023-03-01T13:17:52;101067.88;;;8.24;38.78
74613;BME280;63119;51.788;8.824;2023-03-01T13:23:03;101072.91;;;8.52;38.44
74613;BME280;63119;51.788;8.824;2023-03-01T13:25:29;101068.03;;;8.83;38.03
74613;BME280;63119;51.788;8.824;2023-03-01T13:30:58;101060.69;;;8.29;38.06
74613;BME280;63119;51.788;8.824;2023-03-01T13:35:52;101059.81;;;8.29;38.78
74613;BME280;63119;51.788;8.824;2023-03-01T13:41:02;101053.47;;;7.23;39.36
74613;BME280;63119;51.788;8.824;2023-03-01T13:43:34;101044.13;;;8.04;38.96
74613;BME280;63119;51.788;8.824;2023-03-01T13:46:02;101044.84;;;7.86;39.06
74613;BME280;63119;51.788;8.824;2023-03-01T13:48:33;101044.91;;;7.39;40.91
74613;BME280;63119;51.788;8.824;2023-03-01T13:51:10;101047.78;;;7.10;40.54
74613;BME280;63119;51.788;8.824;2023-03-01T13:53:40;101036.63;;;7.50;41.29
74613;BME280;63119;51.788;8.824;2023-03-01T13:56:10;101025.88;;;7.78;40.67
74613;BME280;63119;51.788;8.824;2023-03-01T14:01:31;101023.38;;;7.51;41.52
74613;BME280;63119;51.788;8.824;2023-03-01T14:03:57;101019.88;;;7.74;41.78
74613;BME280;63119;51.788;8.824;2023-03-01T14:06:28;101021.19;;;7.41;41.61
74613;BME280;63119;51.788;8.824;2023-03-01T14:11:43;101014.19;;;6.93;42.63
74613;BME280;63119;51.788;8.824;2023-03-01T14:14:29;101012.81;;;7.53;41.80
74613;BME280;63119;51.788;8.824;2023-03-01T14:17:16;101013.31;;;7.62;41.39
74613;BME280;63119;51.788;8.824;2023-03-01T14:19:47;101013.00;;;7.02;41.99